sensor_id;sensor_type;location;lat;lon;timestamp;P1;durP1;ratioP1;P2;durP2;ratioP2
75837;SDS011;64480;52.040;113.502;2023-12-14T00:00:29;49.75;;;29.15;;
75837;SDS011;64480;52.040;113.502;2023-12-14T00:03:34;54.85;;;29.63;;
75837;SDS011;64480;52.040;113.502;2023-12-14T00:06:37;73.82;;;38.35;;
75837;SDS011;64480;52.040;113.502;2023-12-14T00:09:41;47.80;;;22.27;;
75837;SDS011;64480;52.040;113.502;2023-12-14T00:12:45;52.38;;;28.20;;
75837;SDS011;64480;52.040;113.502;2023-12-14T00:15:51;58.28;;;30.25;;
75837;SDS011;64480;52.040;113.502;2023-12-14T00:18:55;51.50;;;27.40;;
75837;SDS011;64480;52.040;113.502;2023-12-14T00:25:02;24.58;;;16.98;;
75837;SDS011;64480;52.040;113.502;2023-12-14T00:28:07;45.17;;;28.92;;
75837;SDS011;64480;52.040;113.502;2023-12-14T00:31:11;28.65;;;22.63;;
75837;SDS011;64480;52.040;113.502;2023-12-14T00:34:22;36.35;;;21.80;;
75837;SDS011;64480;52.040;113.502;2023-12-14T00:37:28;59.13;;;31.17;;
75837;SDS011;64480;52.040;113.502;2023-12-14T00:40:33;44.78;;;31.38;;
75837;SDS011;64480;52.040;113.502;2023-12-14T00:43:37;42.47;;;22.77;;
75837;SDS011;64480;52.040;113.502;2023-12-14T00:46:42;27.40;;;24.52;;
75837;SDS011;64480;52.040;113.502;2023-12-14T00:49:46;57.22;;;31.20;;
75837;SDS011;64480;52.040;113.502;2023-12-14T00:52:58;65.65;;;32.70;;
75837;SDS011;64480;52.040;113.502;2023-12-14T00:59:23;34.15;;;27.60;;
75837;SDS011;64480;52.040;113.502;2023-12-14T01:02:34;40.05;;;25.92;;
75837;SDS011;64480;52.040;113.502;2023-12-14T01:05:46;56.58;;;30.25;;
75837;SDS011;64480;52.040;113.502;2023-12-14T01:08:52;84.75;;;51.78;;
75837;SDS011;64480;52.040;113.502;2023-12-14T01:11:59;91.55;;;48.08;;
75837;SDS011;64480;52.040;113.502;2023-12-14T01:15:06;50.03;;;31.08;;
75837;SDS011;64480;52.040;113.502;2023-12-14T01:18:10;97.95;;;43.63;;
75837;SDS011;64480;52.040;113.502;2023-12-14T01:21:20;84.78;;;43.63;;
75837;SDS011;64480;52.040;113.502;2023-12-14T01:24:25;67.05;;;46.03;;
75837;SDS011;64480;52.040;113.502;2023-12-14T01:27:30;46.10;;;31.55;;
75837;SDS011;64480;52.040;113.502;2023-12-14T01:30:37;62.03;;;30.70;;
75837;SDS011;64480;52.040;113.502;2023-12-14T01:33:43;41.28;;;29.52;;
75837;SDS011;64480;52.040;113.502;2023-12-14T01:36:55;46.25;;;29.25;;
75837;SDS011;64480;52.040;113.502;2023-12-14T01:40:05;25.98;;;20.20;;
75837;SDS011;64480;52.040;113.502;2023-12-14T01:43:09;54.00;;;26.05;;
75837;SDS011;64480;52.040;113.502;2023-12-14T01:46:19;82.93;;;40.15;;
75837;SDS011;64480;52.040;113.502;2023-12-14T01:49:23;44.50;;;37.55;;
75837;SDS011;64480;52.040;113.502;2023-12-14T01:52:29;25.70;;;23.67;;
75837;SDS011;64480;52.040;113.502;2023-12-14T01:55:33;99.07;;;40.00;;
75837;SDS011;64480;52.040;113.502;2023-12-14T01:58:40;62.15;;;26.63;;
75837;SDS011;64480;52.040;113.502;2023-12-14T02:01:52;37.17;;;29.85;;
75837;SDS011;64480;52.040;113.502;2023-12-14T02:04:59;45.22;;;25.90;;
75837;SDS011;64480;52.040;113.502;2023-12-14T02:08:03;65.00;;;40.50;;
75837;SDS011;64480;52.040;113.502;2023-12-14T02:11:34;36.97;;;29.33;;
75837;SDS011;64480;52.040;113.502;2023-12-14T02:14:43;60.95;;;39.30;;
75837;SDS011;64480;52.040;113.502;2023-12-14T02:17:46;54.38;;;29.02;;
75837;SDS011;64480;52.040;113.502;2023-12-14T02:20:51;38.28;;;34.25;;
75837;SDS011;64480;52.040;113.502;2023-12-14T02:23:55;35.05;;;20.40;;
75837;SDS011;64480;52.040;113.502;2023-12-14T02:26:59;51.33;;;27.92;;
75837;SDS011;64480;52.040;113.502;2023-12-14T02:30:05;32.72;;;28.73;;
75837;SDS011;64480;52.040;113.502;2023-12-14T02:33:25;75.85;;;40.67;;
75837;SDS011;64480;52.040;113.502;2023-12-14T02:36:35;53.38;;;30.45;;
75837;SDS011;64480;52.040;113.502;2023-12-14T02:39:45;120.60;;;63.50;;
75837;SDS011;64480;52.040;113.502;2023-12-14T02:42:50;49.95;;;27.63;;
75837;SDS011;64480;52.040;113.502;2023-12-14T02:45:54;50.50;;;31.60;;
75837;SDS011;64480;52.040;113.502;2023-12-14T02:49:04;49.85;;;22.95;;
75837;SDS011;64480;52.040;113.502;2023-12-14T02:52:11;34.92;;;27.13;;
75837;SDS011;64480;52.040;113.502;2023-12-14T02:55:24;78.47;;;33.47;;
75837;SDS011;64480;52.040;113.502;2023-12-14T02:58:27;29.65;;;26.65;;
75837;SDS011;64480;52.040;113.502;2023-12-14T03:01:31;36.03;;;28.70;;
75837;SDS011;64480;52.040;113.502;2023-12-14T03:04:34;44.22;;;23.95;;
75837;SDS011;64480;52.040;113.502;2023-12-14T03:07:46;34.10;;;30.80;;
75837;SDS011;64480;52.040;113.502;2023-12-14T03:13:52;24.15;;;20.27;;
75837;SDS011;64480;52.040;113.502;2023-12-14T03:16:56;89.47;;;42.38;;
75837;SDS011;64480;52.040;113.502;2023-12-14T03:19:59;63.45;;;30.48;;
75837;SDS011;64480;52.040;113.502;2023-12-14T03:23:03;32.67;;;25.70;;
75837;SDS011;64480;52.040;113.502;2023-12-14T03:26:10;47.92;;;28.50;;
75837;SDS011;64480;52.040;113.502;2023-12-14T03:29:18;32.03;;;28.73;;
75837;SDS011;64480;52.040;113.502;2023-12-14T03:32:27;42.70;;;38.38;;
75837;SDS011;64480;52.040;113.502;2023-12-14T03:35:32;33.15;;;25.58;;
75837;SDS011;64480;52.040;113.502;2023-12-14T03:38:35;66.63;;;41.13;;
75837;SDS011;64480;52.040;113.502;2023-12-14T03:41:39;47.70;;;25.30;;
75837;SDS011;64480;52.040;113.502;2023-12-14T03:44:49;58.80;;;32.03;;
75837;SDS011;64480;52.040;113.502;2023-12-14T03:47:55;39.65;;;34.22;;
75837;SDS011;64480;52.040;113.502;2023-12-14T03:51:03;59.55;;;33.40;;
75837;SDS011;64480;52.040;113.502;2023-12-14T03:54:24;29.55;;;20.63;;
75837;SDS011;64480;52.040;113.502;2023-12-14T03:57:36;34.20;;;29.48;;
75837;SDS011;64480;52.040;113.502;2023-12-14T04:00:41;29.58;;;24.90;;
75837;SDS011;64480;52.040;113.502;2023-12-14T04:03:46;66.03;;;43.03;;
75837;SDS011;64480;52.040;113.502;2023-12-14T04:06:54;78.38;;;39.60;;
75837;SDS011;64480;52.040;113.502;2023-12-14T04:09:58;50.50;;;44.50;;
75837;SDS011;64480;52.040;113.502;2023-12-14T04:13:07;48.30;;;26.60;;
75837;SDS011;64480;52.040;113.502;2023-12-14T04:16:21;40.30;;;21.77;;
75837;SDS011;64480;52.040;113.502;2023-12-14T04:19:27;33.15;;;28.83;;
75837;SDS011;64480;52.040;113.502;2023-12-14T04:22:31;33.22;;;29.88;;
75837;SDS011;64480;52.040;113.502;2023-12-14T04:25:37;76.65;;;58.92;;
75837;SDS011;64480;52.040;113.502;2023-12-14T04:31:47;43.92;;;27.27;;
75837;SDS011;64480;52.040;113.502;2023-12-14T04:34:53;77.18;;;46.80;;
75837;SDS011;64480;52.040;113.502;2023-12-14T04:37:57;24.75;;;12.25;;
75837;SDS011;64480;52.040;113.502;2023-12-14T04:41:05;22.08;;;16.55;;
75837;SDS011;64480;52.040;113.502;2023-12-14T04:44:08;27.83;;;13.68;;
75837;SDS011;64480;52.040;113.502;2023-12-14T04:47:23;54.67;;;34.53;;
75837;SDS011;64480;52.040;113.502;2023-12-14T04:50:30;24.95;;;19.20;;
75837;SDS011;64480;52.040;113.502;2023-12-14T04:56:37;30.92;;;14.50;;
75837;SDS011;64480;52.040;113.502;2023-12-14T04:59:42;29.20;;;24.77;;
75837;SDS011;64480;52.040;113.502;2023-12-14T05:02:47;23.25;;;20.38;;
75837;SDS011;64480;52.040;113.502;2023-12-14T05:05:56;43.75;;;39.42;;
75837;SDS011;64480;52.040;113.502;2023-12-14T05:09:00;40.47;;;30.88;;
75837;SDS011;64480;52.040;113.502;2023-12-14T05:12:07;34.28;;;30.30;;
75837;SDS011;64480;52.040;113.502;2023-12-14T05:15:10;40.55;;;32.88;;
75837;SDS011;64480;52.040;113.502;2023-12-14T05:18:14;42.22;;;34.38;;
75837;SDS011;64480;52.040;113.502;2023-12-14T05:21:25;43.55;;;35.90;;
75837;SDS011;64480;52.040;113.502;2023-12-14T05:24:28;18.13;;;16.55;;
75837;SDS011;64480;52.040;113.502;2023-12-14T05:27:33;53.33;;;35.90;;
75837;SDS011;64480;52.040;113.502;2023-12-14T05:30:38;39.55;;;30.95;;
75837;SDS011;64480;52.040;113.502;2023-12-14T05:33:41;64.18;;;41.85;;
75837;SDS011;64480;52.040;113.502;2023-12-14T05:36:46;74.40;;;49.08;;
75837;SDS011;64480;52.040;113.502;2023-12-14T05:39:49;41.67;;;33.83;;
75837;SDS011;64480;52.040;113.502;2023-12-14T05:42:54;17.95;;;16.70;;
75837;SDS011;64480;52.040;113.502;2023-12-14T05:45:58;14.07;;;12.88;;
75837;SDS011;64480;52.040;113.502;2023-12-14T05:49:07;33.67;;;30.05;;
75837;SDS011;64480;52.040;113.502;2023-12-14T05:52:46;12.35;;;9.95;;
75837;SDS011;64480;52.040;113.502;2023-12-14T05:55:53;26.20;;;23.00;;
75837;SDS011;64480;52.040;113.502;2023-12-14T05:59:03;13.93;;;11.88;;
75837;SDS011;64480;52.040;113.502;2023-12-14T06:02:08;34.80;;;31.45;;
75837;SDS011;64480;52.040;113.502;2023-12-14T06:05:12;11.48;;;8.57;;
75837;SDS011;64480;52.040;113.502;2023-12-14T06:11:33;26.77;;;15.55;;
75837;SDS011;64480;52.040;113.502;2023-12-14T06:14:38;34.58;;;28.30;;
75837;SDS011;64480;52.040;113.502;2023-12-14T06:17:44;22.00;;;19.88;;
75837;SDS011;64480;52.040;113.502;2023-12-14T06:20:48;42.35;;;30.63;;
75837;SDS011;64480;52.040;113.502;2023-12-14T06:23:52;49.80;;;44.00;;
75837;SDS011;64480;52.040;113.502;2023-12-14T06:26:56;40.05;;;32.53;;
75837;SDS011;64480;52.040;113.502;2023-12-14T06:30:00;35.95;;;32.33;;
75837;SDS011;64480;52.040;113.502;2023-12-14T06:33:07;27.23;;;23.05;;
75837;SDS011;64480;52.040;113.502;2023-12-14T06:36:11;56.50;;;25.73;;
75837;SDS011;64480;52.040;113.502;2023-12-14T06:39:17;19.92;;;18.00;;
75837;SDS011;64480;52.040;113.502;2023-12-14T06:42:21;28.55;;;24.73;;
75837;SDS011;64480;52.040;113.502;2023-12-14T06:45:25;21.35;;;18.27;;
75837;SDS011;64480;52.040;113.502;2023-12-14T06:48:29;50.67;;;26.75;;
75837;SDS011;64480;52.040;113.502;2023-12-14T06:51:33;55.97;;;32.00;;
75837;SDS011;64480;52.040;113.502;2023-12-14T06:54:37;26.80;;;23.67;;
75837;SDS011;64480;52.040;113.502;2023-12-14T06:57:44;20.08;;;17.35;;
75837;SDS011;64480;52.040;113.502;2023-12-14T07:03:55;54.38;;;23.55;;
75837;SDS011;64480;52.040;113.502;2023-12-14T07:06:58;19.33;;;17.63;;
75837;SDS011;64480;52.040;113.502;2023-12-14T07:10:02;32.35;;;27.58;;
75837;SDS011;64480;52.040;113.502;2023-12-14T07:13:06;39.15;;;24.35;;
75837;SDS011;64480;52.040;113.502;2023-12-14T07:16:11;26.38;;;21.17;;
75837;SDS011;64480;52.040;113.502;2023-12-14T07:19:15;34.92;;;29.35;;
75837;SDS011;64480;52.040;113.502;2023-12-14T07:22:21;45.72;;;31.50;;
75837;SDS011;64480;52.040;113.502;2023-12-14T07:25:25;146.05;;;53.38;;
75837;SDS011;64480;52.040;113.502;2023-12-14T07:31:32;59.92;;;41.20;;
75837;SDS011;64480;52.040;113.502;2023-12-14T07:34:37;18.05;;;15.82;;
75837;SDS011;64480;52.040;113.502;2023-12-14T07:37:41;26.02;;;22.25;;
75837;SDS011;64480;52.040;113.502;2023-12-14T07:40:44;15.02;;;13.48;;
75837;SDS011;64480;52.040;113.502;2023-12-14T07:43:49;17.02;;;14.10;;
75837;SDS011;64480;52.040;113.502;2023-12-14T07:46:56;22.20;;;13.88;;
75837;SDS011;64480;52.040;113.502;2023-12-14T07:50:00;11.20;;;9.48;;
75837;SDS011;64480;52.040;113.502;2023-12-14T07:53:04;42.88;;;23.98;;
75837;SDS011;64480;52.040;113.502;2023-12-14T07:56:07;6.30;;;5.97;;
75837;SDS011;64480;52.040;113.502;2023-12-14T07:59:11;11.02;;;10.02;;
75837;SDS011;64480;52.040;113.502;2023-12-14T08:02:15;15.00;;;14.10;;
75837;SDS011;64480;52.040;113.502;2023-12-14T08:05:21;15.90;;;14.95;;
75837;SDS011;64480;52.040;113.502;2023-12-14T08:08:25;19.45;;;16.40;;
75837;SDS011;64480;52.040;113.502;2023-12-14T08:11:28;5.88;;;5.43;;
75837;SDS011;64480;52.040;113.502;2023-12-14T08:14:33;13.13;;;10.65;;
75837;SDS011;64480;52.040;113.502;2023-12-14T08:17:36;17.55;;;14.18;;
75837;SDS011;64480;52.040;113.502;2023-12-14T08:20:40;19.10;;;14.23;;
75837;SDS011;64480;52.040;113.502;2023-12-14T08:23:43;9.20;;;7.07;;
75837;SDS011;64480;52.040;113.502;2023-12-14T08:26:48;19.85;;;16.60;;
75837;SDS011;64480;52.040;113.502;2023-12-14T08:32:55;58.17;;;44.58;;
75837;SDS011;64480;52.040;113.502;2023-12-14T08:35:59;12.23;;;7.10;;
75837;SDS011;64480;52.040;113.502;2023-12-14T08:39:03;25.52;;;22.73;;
75837;SDS011;64480;52.040;113.502;2023-12-14T08:42:07;2.95;;;2.85;;
75837;SDS011;64480;52.040;113.502;2023-12-14T08:48:14;18.83;;;15.85;;
75837;SDS011;64480;52.040;113.502;2023-12-14T08:51:22;10.85;;;10.15;;
75837;SDS011;64480;52.040;113.502;2023-12-14T08:54:28;13.32;;;12.15;;
75837;SDS011;64480;52.040;113.502;2023-12-14T08:57:32;19.13;;;17.55;;
75837;SDS011;64480;52.040;113.502;2023-12-14T09:00:36;10.65;;;9.90;;
75837;SDS011;64480;52.040;113.502;2023-12-14T09:03:40;10.95;;;10.20;;
75837;SDS011;64480;52.040;113.502;2023-12-14T09:06:44;28.10;;;25.35;;
75837;SDS011;64480;52.040;113.502;2023-12-14T09:09:48;28.58;;;25.77;;
75837;SDS011;64480;52.040;113.502;2023-12-14T09:12:52;48.92;;;15.75;;
75837;SDS011;64480;52.040;113.502;2023-12-14T09:15:56;32.55;;;29.30;;
75837;SDS011;64480;52.040;113.502;2023-12-14T09:19:00;24.23;;;9.98;;
75837;SDS011;64480;52.040;113.502;2023-12-14T09:22:05;11.07;;;10.35;;
75837;SDS011;64480;52.040;113.502;2023-12-14T09:25:09;17.08;;;12.23;;
75837;SDS011;64480;52.040;113.502;2023-12-14T09:28:13;16.85;;;14.00;;
75837;SDS011;64480;52.040;113.502;2023-12-14T09:31:17;22.08;;;16.05;;
75837;SDS011;64480;52.040;113.502;2023-12-14T09:34:24;14.65;;;11.50;;
75837;SDS011;64480;52.040;113.502;2023-12-14T09:37:28;33.40;;;29.05;;
75837;SDS011;64480;52.040;113.502;2023-12-14T09:40:31;25.20;;;14.85;;
75837;SDS011;64480;52.040;113.502;2023-12-14T09:43:36;33.15;;;11.07;;
75837;SDS011;64480;52.040;113.502;2023-12-14T09:46:40;10.77;;;6.93;;
75837;SDS011;64480;52.040;113.502;2023-12-14T09:49:51;36.67;;;26.33;;
75837;SDS011;64480;52.040;113.502;2023-12-14T09:52:56;19.60;;;12.80;;
75837;SDS011;64480;52.040;113.502;2023-12-14T09:56:01;27.88;;;10.68;;
75837;SDS011;64480;52.040;113.502;2023-12-14T09:59:09;22.05;;;15.93;;
75837;SDS011;64480;52.040;113.502;2023-12-14T10:02:14;63.50;;;27.80;;
75837;SDS011;64480;52.040;113.502;2023-12-14T10:05:21;41.10;;;25.70;;
75837;SDS011;64480;52.040;113.502;2023-12-14T10:08:26;33.17;;;24.08;;
75837;SDS011;64480;52.040;113.502;2023-12-14T10:11:30;24.75;;;19.92;;
75837;SDS011;64480;52.040;113.502;2023-12-14T10:14:38;27.67;;;25.27;;
75837;SDS011;64480;52.040;113.502;2023-12-14T10:17:42;28.38;;;25.35;;
75837;SDS011;64480;52.040;113.502;2023-12-14T10:20:46;11.77;;;10.57;;
75837;SDS011;64480;52.040;113.502;2023-12-14T10:23:49;16.25;;;14.40;;
75837;SDS011;64480;52.040;113.502;2023-12-14T10:26:53;18.05;;;16.30;;
75837;SDS011;64480;52.040;113.502;2023-12-14T10:29:56;18.73;;;16.77;;
75837;SDS011;64480;52.040;113.502;2023-12-14T10:33:00;46.33;;;32.13;;
75837;SDS011;64480;52.040;113.502;2023-12-14T10:36:04;57.80;;;35.88;;
75837;SDS011;64480;52.040;113.502;2023-12-14T10:39:08;56.85;;;32.35;;
75837;SDS011;64480;52.040;113.502;2023-12-14T10:42:15;73.25;;;35.47;;
75837;SDS011;64480;52.040;113.502;2023-12-14T10:45:25;49.95;;;35.13;;
75837;SDS011;64480;52.040;113.502;2023-12-14T10:48:35;51.65;;;38.38;;
75837;SDS011;64480;52.040;113.502;2023-12-14T10:51:46;6.68;;;6.15;;
75837;SDS011;64480;52.040;113.502;2023-12-14T10:54:53;71.88;;;50.60;;
75837;SDS011;64480;52.040;113.502;2023-12-14T10:58:03;65.13;;;42.65;;
75837;SDS011;64480;52.040;113.502;2023-12-14T11:01:08;47.90;;;36.60;;
75837;SDS011;64480;52.040;113.502;2023-12-14T11:04:17;16.17;;;13.13;;
75837;SDS011;64480;52.040;113.502;2023-12-14T11:10:54;23.83;;;17.90;;
75837;SDS011;64480;52.040;113.502;2023-12-14T11:14:13;20.00;;;16.92;;
75837;SDS011;64480;52.040;113.502;2023-12-14T11:17:22;35.63;;;32.03;;
75837;SDS011;64480;52.040;113.502;2023-12-14T11:20:30;13.73;;;7.78;;
75837;SDS011;64480;52.040;113.502;2023-12-14T11:23:37;45.50;;;39.58;;
75837;SDS011;64480;52.040;113.502;2023-12-14T11:26:44;34.08;;;31.13;;
75837;SDS011;64480;52.040;113.502;2023-12-14T11:29:47;45.03;;;24.95;;
75837;SDS011;64480;52.040;113.502;2023-12-14T11:32:53;14.73;;;13.35;;
75837;SDS011;64480;52.040;113.502;2023-12-14T11:35:57;11.13;;;10.25;;
75837;SDS011;64480;52.040;113.502;2023-12-14T11:39:01;46.83;;;31.23;;
75837;SDS011;64480;52.040;113.502;2023-12-14T11:42:06;26.90;;;24.20;;
75837;SDS011;64480;52.040;113.502;2023-12-14T11:45:11;62.85;;;39.85;;
75837;SDS011;64480;52.040;113.502;2023-12-14T11:48:21;90.75;;;49.47;;
75837;SDS011;64480;52.040;113.502;2023-12-14T11:51:26;41.55;;;37.58;;
75837;SDS011;64480;52.040;113.502;2023-12-14T11:54:30;37.40;;;22.27;;
75837;SDS011;64480;52.040;113.502;2023-12-14T11:57:33;44.65;;;38.85;;
75837;SDS011;64480;52.040;113.502;2023-12-14T12:00:38;24.13;;;22.50;;
75837;SDS011;64480;52.040;113.502;2023-12-14T12:03:42;59.53;;;54.10;;
75837;SDS011;64480;52.040;113.502;2023-12-14T12:06:46;66.93;;;51.50;;
75837;SDS011;64480;52.040;113.502;2023-12-14T12:09:49;98.78;;;75.43;;
75837;SDS011;64480;52.040;113.502;2023-12-14T12:13:02;72.05;;;60.00;;
75837;SDS011;64480;52.040;113.502;2023-12-14T12:16:10;98.05;;;87.72;;
75837;SDS011;64480;52.040;113.502;2023-12-14T12:19:13;43.85;;;40.33;;
75837;SDS011;64480;52.040;113.502;2023-12-14T12:22:18;55.08;;;38.25;;
75837;SDS011;64480;52.040;113.502;2023-12-14T12:25:24;31.20;;;28.02;;
75837;SDS011;64480;52.040;113.502;2023-12-14T12:28:30;60.47;;;48.17;;
75837;SDS011;64480;52.040;113.502;2023-12-14T12:31:33;116.97;;;71.57;;
75837;SDS011;64480;52.040;113.502;2023-12-14T12:34:38;171.73;;;102.40;;
75837;SDS011;64480;52.040;113.502;2023-12-14T12:37:41;63.53;;;31.80;;
75837;SDS011;64480;52.040;113.502;2023-12-14T12:40:46;51.85;;;36.15;;
75837;SDS011;64480;52.040;113.502;2023-12-14T12:43:49;68.47;;;56.33;;
75837;SDS011;64480;52.040;113.502;2023-12-14T12:47:11;97.43;;;54.22;;
75837;SDS011;64480;52.040;113.502;2023-12-14T12:50:15;68.93;;;46.65;;
75837;SDS011;64480;52.040;113.502;2023-12-14T12:53:19;72.32;;;50.28;;
75837;SDS011;64480;52.040;113.502;2023-12-14T12:56:28;48.47;;;32.70;;
75837;SDS011;64480;52.040;113.502;2023-12-14T12:59:31;66.45;;;43.25;;
75837;SDS011;64480;52.040;113.502;2023-12-14T13:02:36;57.92;;;48.03;;
75837;SDS011;64480;52.040;113.502;2023-12-14T13:05:43;111.13;;;56.70;;
75837;SDS011;64480;52.040;113.502;2023-12-14T13:08:48;71.22;;;57.50;;
75837;SDS011;64480;52.040;113.502;2023-12-14T13:11:51;82.97;;;43.15;;
75837;SDS011;64480;52.040;113.502;2023-12-14T13:14:55;69.07;;;45.88;;
75837;SDS011;64480;52.040;113.502;2023-12-14T13:18:01;113.22;;;68.05;;
75837;SDS011;64480;52.040;113.502;2023-12-14T13:21:06;108.65;;;65.25;;
75837;SDS011;64480;52.040;113.502;2023-12-14T13:24:11;77.28;;;50.42;;
75837;SDS011;64480;52.040;113.502;2023-12-14T13:27:14;46.38;;;41.47;;
75837;SDS011;64480;52.040;113.502;2023-12-14T13:30:17;75.22;;;67.18;;
75837;SDS011;64480;52.040;113.502;2023-12-14T13:33:25;94.13;;;69.68;;
75837;SDS011;64480;52.040;113.502;2023-12-14T13:36:30;83.50;;;69.72;;
75837;SDS011;64480;52.040;113.502;2023-12-14T13:39:33;30.63;;;27.40;;
75837;SDS011;64480;52.040;113.502;2023-12-14T13:42:40;99.78;;;65.72;;
75837;SDS011;64480;52.040;113.502;2023-12-14T13:46:00;29.10;;;26.08;;
75837;SDS011;64480;52.040;113.502;2023-12-14T13:49:23;60.47;;;39.92;;
75837;SDS011;64480;52.040;113.502;2023-12-14T13:52:28;111.60;;;51.15;;
75837;SDS011;64480;52.040;113.502;2023-12-14T13:55:33;88.22;;;68.28;;
75837;SDS011;64480;52.040;113.502;2023-12-14T13:58:37;84.70;;;70.32;;
75837;SDS011;64480;52.040;113.502;2023-12-14T14:01:41;116.05;;;75.03;;
75837;SDS011;64480;52.040;113.502;2023-12-14T14:04:46;105.75;;;73.13;;
75837;SDS011;64480;52.040;113.502;2023-12-14T14:07:50;147.57;;;94.15;;
75837;SDS011;64480;52.040;113.502;2023-12-14T14:10:54;94.20;;;70.53;;
75837;SDS011;64480;52.040;113.502;2023-12-14T14:13:57;61.60;;;50.22;;
75837;SDS011;64480;52.040;113.502;2023-12-14T14:17:01;120.70;;;81.70;;
75837;SDS011;64480;52.040;113.502;2023-12-14T14:20:09;73.97;;;53.17;;
75837;SDS011;64480;52.040;113.502;2023-12-14T14:23:13;81.70;;;51.63;;
75837;SDS011;64480;52.040;113.502;2023-12-14T14:29:19;50.03;;;34.88;;
75837;SDS011;64480;52.040;113.502;2023-12-14T14:32:26;113.60;;;53.22;;
75837;SDS011;64480;52.040;113.502;2023-12-14T14:35:30;73.40;;;56.95;;
75837;SDS011;64480;52.040;113.502;2023-12-14T14:38:36;108.88;;;62.58;;
75837;SDS011;64480;52.040;113.502;2023-12-14T14:41:40;90.30;;;55.63;;
75837;SDS011;64480;52.040;113.502;2023-12-14T14:44:43;98.82;;;71.72;;
75837;SDS011;64480;52.040;113.502;2023-12-14T14:47:46;98.07;;;62.08;;
75837;SDS011;64480;52.040;113.502;2023-12-14T14:50:50;72.88;;;63.45;;
75837;SDS011;64480;52.040;113.502;2023-12-14T14:53:56;73.97;;;62.60;;
75837;SDS011;64480;52.040;113.502;2023-12-14T14:57:00;113.13;;;65.25;;
75837;SDS011;64480;52.040;113.502;2023-12-14T15:00:06;70.85;;;54.45;;
75837;SDS011;64480;52.040;113.502;2023-12-14T15:03:11;96.50;;;58.22;;
75837;SDS011;64480;52.040;113.502;2023-12-14T15:09:18;123.13;;;63.63;;
75837;SDS011;64480;52.040;113.502;2023-12-14T15:12:27;75.18;;;54.15;;
75837;SDS011;64480;52.040;113.502;2023-12-14T15:15:30;39.63;;;27.80;;
75837;SDS011;64480;52.040;113.502;2023-12-14T15:18:34;130.20;;;63.03;;
75837;SDS011;64480;52.040;113.502;2023-12-14T15:21:47;83.53;;;58.22;;
75837;SDS011;64480;52.040;113.502;2023-12-14T15:24:50;86.45;;;74.57;;
75837;SDS011;64480;52.040;113.502;2023-12-14T15:27:53;43.55;;;39.50;;
75837;SDS011;64480;52.040;113.502;2023-12-14T15:30:56;40.95;;;37.15;;
75837;SDS011;64480;52.040;113.502;2023-12-14T15:37:05;190.20;;;100.72;;
75837;SDS011;64480;52.040;113.502;2023-12-14T15:43:12;103.63;;;65.40;;
75837;SDS011;64480;52.040;113.502;2023-12-14T15:46:17;52.83;;;42.10;;
75837;SDS011;64480;52.040;113.502;2023-12-14T15:49:21;117.03;;;75.90;;
75837;SDS011;64480;52.040;113.502;2023-12-14T15:52:27;97.05;;;56.97;;
75837;SDS011;64480;52.040;113.502;2023-12-14T15:55:31;95.22;;;54.50;;
75837;SDS011;64480;52.040;113.502;2023-12-14T15:58:34;24.70;;;22.33;;
75837;SDS011;64480;52.040;113.502;2023-12-14T16:01:38;36.90;;;26.33;;
75837;SDS011;64480;52.040;113.502;2023-12-14T16:04:45;82.55;;;52.90;;
75837;SDS011;64480;52.040;113.502;2023-12-14T16:07:49;32.05;;;21.58;;
75837;SDS011;64480;52.040;113.502;2023-12-14T16:10:54;99.50;;;59.05;;
75837;SDS011;64480;52.040;113.502;2023-12-14T16:13:57;82.18;;;47.97;;
75837;SDS011;64480;52.040;113.502;2023-12-14T16:17:03;88.07;;;77.82;;
75837;SDS011;64480;52.040;113.502;2023-12-14T16:20:08;97.88;;;80.88;;
75837;SDS011;64480;52.040;113.502;2023-12-14T16:23:12;47.70;;;41.10;;
75837;SDS011;64480;52.040;113.502;2023-12-14T16:26:16;104.75;;;75.97;;
75837;SDS011;64480;52.040;113.502;2023-12-14T16:29:20;36.42;;;32.75;;
75837;SDS011;64480;52.040;113.502;2023-12-14T16:32:27;118.00;;;71.70;;
75837;SDS011;64480;52.040;113.502;2023-12-14T16:35:30;16.67;;;11.30;;
75837;SDS011;64480;52.040;113.502;2023-12-14T16:38:34;9.90;;;8.98;;
75837;SDS011;64480;52.040;113.502;2023-12-14T16:41:38;24.52;;;22.48;;
75837;SDS011;64480;52.040;113.502;2023-12-14T16:44:42;22.77;;;15.02;;
75837;SDS011;64480;52.040;113.502;2023-12-14T16:47:47;70.53;;;31.55;;
75837;SDS011;64480;52.040;113.502;2023-12-14T16:50:50;40.83;;;36.17;;
75837;SDS011;64480;52.040;113.502;2023-12-14T16:53:58;109.57;;;65.00;;
75837;SDS011;64480;52.040;113.502;2023-12-14T16:57:06;60.15;;;38.95;;
75837;SDS011;64480;52.040;113.502;2023-12-14T17:00:09;75.15;;;47.17;;
75837;SDS011;64480;52.040;113.502;2023-12-14T17:03:14;85.05;;;52.15;;
75837;SDS011;64480;52.040;113.502;2023-12-14T17:06:17;108.13;;;53.65;;
75837;SDS011;64480;52.040;113.502;2023-12-14T17:09:22;57.25;;;44.20;;
75837;SDS011;64480;52.040;113.502;2023-12-14T17:12:33;66.18;;;40.42;;
75837;SDS011;64480;52.040;113.502;2023-12-14T17:15:37;93.65;;;64.88;;
75837;SDS011;64480;52.040;113.502;2023-12-14T17:21:43;102.03;;;60.85;;
75837;SDS011;64480;52.040;113.502;2023-12-14T17:24:47;177.60;;;101.68;;
75837;SDS011;64480;52.040;113.502;2023-12-14T17:27:50;156.43;;;79.35;;
75837;SDS011;64480;52.040;113.502;2023-12-14T17:30:53;116.38;;;62.00;;
75837;SDS011;64480;52.040;113.502;2023-12-14T17:33:56;82.90;;;45.08;;
75837;SDS011;64480;52.040;113.502;2023-12-14T17:37:00;83.72;;;41.75;;
75837;SDS011;64480;52.040;113.502;2023-12-14T17:40:03;61.53;;;34.35;;
75837;SDS011;64480;52.040;113.502;2023-12-14T17:43:07;67.82;;;35.03;;
75837;SDS011;64480;52.040;113.502;2023-12-14T17:46:14;78.65;;;44.35;;
75837;SDS011;64480;52.040;113.502;2023-12-14T17:49:21;40.22;;;29.67;;
75837;SDS011;64480;52.040;113.502;2023-12-14T17:52:28;33.40;;;23.25;;
75837;SDS011;64480;52.040;113.502;2023-12-14T17:55:31;25.55;;;22.38;;
75837;SDS011;64480;52.040;113.502;2023-12-14T17:58:34;77.13;;;31.27;;
75837;SDS011;64480;52.040;113.502;2023-12-14T18:01:44;69.88;;;36.63;;
75837;SDS011;64480;52.040;113.502;2023-12-14T18:04:51;37.80;;;27.92;;
75837;SDS011;64480;52.040;113.502;2023-12-14T18:07:55;43.08;;;25.77;;
75837;SDS011;64480;52.040;113.502;2023-12-14T18:10:59;68.35;;;35.40;;
75837;SDS011;64480;52.040;113.502;2023-12-14T18:14:03;91.95;;;52.95;;
75837;SDS011;64480;52.040;113.502;2023-12-14T18:17:07;118.88;;;58.72;;
75837;SDS011;64480;52.040;113.502;2023-12-14T18:20:11;55.60;;;43.20;;
75837;SDS011;64480;52.040;113.502;2023-12-14T18:23:14;14.50;;;13.55;;